Flight Track Log - Related Links

Times and Time Zones

All times are in EDT time to prevent confusion due to time zone crossing. See the PDT4166 flight status page for this flight to view local times or setup timezone preferences in your user account.

Time Position Orientation Groundspeed Altitude Reporting Facility
EDT Latitude Longitude Course Direction KTS MPH feet Rate Location/Type
Sat 05:30:14 PM 39.9000 -75.2333 330° Northwest 112 129 700  Level Philadelphia TRACON
Sat 05:31:02 PM 39.9000 -75.2667 270° West 133 153 1,700 1,333 Climbing Philadelphia TRACON
Sat 05:32:00 PM 40.0360 -75.3860 323° Northwest  Level FlightAware Approximate
Sat 05:32:02 PM 39.9167 -75.3167 294° West 139 160 3,100  Level Philadelphia TRACON
Sat 05:32:57 PM 39.9333 -75.3667 294° West 144 166 4,300 1,190 Climbing Philadelphia TRACON
Sat 05:33:00 PM 40.0961 -75.4314 339° North  Level FlightAware Approximate
Sat 05:34:00 PM 40.1449 -75.4949 323° Northwest  Level FlightAware Approximate
Sat 05:34:03 PM 39.9500 -75.4167 294° West 152 175 5,500  Level Philadelphia TRACON
Sat 05:35:00 PM 40.2052 -75.5414 330° Northwest  Level FlightAware Approximate
Sat 05:35:09 PM 40.0000 -75.4333 346° North 158 182 6,900  Level Philadelphia TRACON
Sat 05:37:03 PM 40.0633 -75.4819 330° Northwest 164 189 9,100 1,006 Climbing New York Center
Sat 05:38:02 PM 40.1039 -75.5039 338° Northwest 164 189 9,800 555 Climbing New York Center
Sat 05:39:02 PM 40.1533 -75.5233 343° North 171 197 10,200 545 Climbing New York Center
Sat 05:40:03 PM 40.2022 -75.5486 338° Northwest 182 209 10,900 750 Climbing New York Center
Sat 05:41:02 PM 40.2406 -75.5783 329° Northwest 182 209 11,700 550 Climbing New York Center
Sat 05:42:03 PM 40.2736 -75.6406 305° West 179 206 12,000 148 Climbing New York Center
Sat 05:43:04 PM 40.3219 -75.6767 330° Northwest 192 221 12,000  Level New York Center
Sat 05:44:01 PM 40.3842 -75.6836 355° North 207 238 12,000  Level New York Center
Sat 05:45:01 PM 40.4381 -75.6958 350° North 220 253 12,000  Level New York Center
Sat 05:46:02 PM 40.5000 -75.7056 353° North 220 253 12,000  Level New York Center
Sat 05:47:03 PM 40.5686 -75.7133 355° North 220 253 12,000  Level New York Center
Sat 05:48:04 PM 40.6286 -75.7258 351° North 220 253 12,000  Level New York Center
Sat 05:49:02 PM 40.6906 -75.7358 353° North 220 253 12,000  Level New York Center
Sat 05:50:02 PM 40.7486 -75.7428 355° North 220 253 12,000  Level New York Center
Sat 05:51:04 PM 40.8086 -75.7525 353° North 220 253 12,000 -50 Level New York Center
Sat 05:52:02 PM 40.8769 -75.7631 353° North 220 253 11,900 -51 Descending New York Center
Sat 05:53:02 PM 40.9369 -75.7703 355° North 220 253 11,900 50 Level New York Center
Sat 05:54:03 PM 41.0011 -75.7831 351° North 220 253 12,000 50 Climbing New York Center
Sat 05:55:01 PM 41.0550 -75.7900 354° North 220 253 12,000  Level New York Center
Sat 05:56:01 PM 41.1192 -75.7975 355° North 214 246 12,000  Level New York Center
Sat 05:57:01 PM 41.1856 -75.8078 353° North 220 253 12,000  Level New York Center
Sat 05:58:03 PM 41.2456 -75.8178 353° North 215 247 12,000  Level New York Center
Sat 05:59:03 PM 41.2992 -75.8275 352° North 215 247 12,000  Level New York Center
Sat 06:00:03 PM 41.3592 -75.8403 351° North 215 247 12,000 51 Level New York Center
Sat 06:01:01 PM 41.4192 -75.8475 355° North 215 247 12,100 50 Climbing New York Center
Sat 06:02:03 PM 41.4814 -75.8522 357° North 215 247 12,100 -50 Level New York Center
Sat 06:03:02 PM 41.5475 -75.8656 351° North 215 247 12,000 -50 Descending New York Center
Sat 06:04:02 PM 41.6072 -75.8783 351° North 215 247 12,000  Level New York Center
Sat 06:05:03 PM 41.6603 -75.9075 338° Northwest 215 247 12,000  Level New York Center
Sat 06:06:03 PM 41.7197 -75.9314 343° North 220 253 12,000  Level New York Center

Login

Don't have an account? Register now (free) for customized features, flight alerts, and more!